Time;durP1;ratioP1;P1;durP2;ratioP2;P2;SDS_P1;SDS_P2;PMS_P1;PMS_P2;Temp;Humidity;BMP_temperature;BMP_pressure;BME280_temperature;BME280_humidity;BME280_pressure;Samples;Min_cycle;Max_cycle;Signal;HPM_P1;HPM_P2
2023/05/14 00:01:14;;;;;;;10.27;4.70;;;;;;;12.62;55.02;100885.13;4212601;28;20301;-65
2023/05/14 00:03:40;;;;;;;13.90;5.37;;;;;;;12.61;54.36;100877.13;4200352;28;20435;-65
2023/05/14 00:06:08;;;;;;;8.50;4.80;;;;;;;12.58;54.74;100869.28;4215878;28;21948;-65
2023/05/14 00:08:34;;;;;;;8.67;4.63;;;;;;;12.55;54.71;100880.44;4210499;28;20440;-62
2023/05/14 00:11:01;;;;;;;16.10;5.00;;;;;;;12.54;54.58;100870.59;4218355;28;20246;-65
2023/05/14 00:13:28;;;;;;;10.33;5.33;;;;;;;12.50;54.60;100876.31;4220578;28;20257;-64
2023/05/14 00:15:54;;;;;;;10.80;4.97;;;;;;;12.48;54.88;100875.59;4217886;28;20324;-62
2023/05/14 00:18:21;;;;;;;11.87;5.30;;;;;;;12.48;55.80;100874.75;4223638;28;20330;-63
2023/05/14 00:20:48;;;;;;;15.60;6.30;;;;;;;12.50;54.99;100872.75;4214684;28;21252;-64
2023/05/14 00:23:14;;;;;;;11.87;5.50;;;;;;;12.57;54.66;100873.88;4219044;28;20394;-64
2023/05/14 00:25:41;;;;;;;10.37;5.63;;;;;;;12.32;56.04;100870.81;4217894;28;22163;-62
2023/05/14 00:28:07;;;;;;;8.73;5.07;;;;;;;12.42;54.78;100859.91;4216790;28;22497;-63
2023/05/14 00:30:34;;;;;;;12.93;5.53;;;;;;;12.32;54.82;100854.53;4219666;28;20235;-62
2023/05/14 00:33:00;;;;;;;17.77;5.70;;;;;;;12.44;54.09;100849.75;4218224;28;20385;-63
2023/05/14 00:35:27;;;;;;;19.77;5.80;;;;;;;12.29;55.09;100852.09;4222192;28;22157;-64
2023/05/14 00:37:53;;;;;;;16.50;5.60;;;;;;;12.38;54.30;100855.78;4222091;28;20239;-65
2023/05/14 00:40:24;;;;;;;10.47;5.63;;;;;;;12.38;54.47;100855.78;4216135;28;20368;-64
2023/05/14 00:42:52;;;;;;;11.73;5.37;;;;;;;12.22;55.03;100853.69;4214046;28;20329;-64
2023/05/14 00:45:18;;;;;;;11.30;5.37;;;;;;;12.05;56.11;100841.75;4214566;28;20254;-63
2023/05/14 00:47:45;;;;;;;12.43;5.70;;;;;;;11.97;56.70;100855.19;4211057;28;20290;-63
2023/05/14 00:50:12;;;;;;;10.50;5.70;;;;;;;11.89;56.96;100856.75;4214169;28;20431;-64
2023/05/14 00:52:39;;;;;;;11.23;5.73;;;;;;;11.79;57.36;100861.31;4202552;28;20239;-64
2023/05/14 00:55:06;;;;;;;10.33;5.10;;;;;;;11.73;57.43;100862.78;4231355;28;20378;-64
2023/05/14 00:57:34;;;;;;;15.80;5.87;;;;;;;11.64;57.82;100865.47;4223402;28;20246;-63
2023/05/14 01:00:02;;;;;;;13.50;5.33;;;;;;;11.65;57.89;100857.22;4211676;28;20643;-61
2023/05/14 01:02:29;;;;;;;11.10;5.70;;;;;;;11.56;57.89;100855.38;4210855;28;20946;-62
2023/05/14 01:04:55;;;;;;;12.37;5.90;;;;;;;11.51;58.39;100857.66;4225774;28;20239;-65
2023/05/14 01:07:53;;;;;;;10.23;5.80;;;;;;;11.53;58.22;100866.47;4217079;28;20239;-61
2023/05/14 01:10:38;;;;;;;11.40;5.90;;;;;;;11.54;58.04;100869.06;4187285;28;20235;-62
2023/05/14 01:13:11;;;;;;;11.57;6.00;;;;;;;11.57;57.81;100862.50;4205885;28;20249;-63
2023/05/14 01:15:39;;;;;;;8.90;5.47;;;;;;;11.57;57.43;100866.06;4213533;28;20244;-61
2023/05/14 01:18:08;;;;;;;9.53;5.47;;;;;;;11.64;57.64;100860.94;4213691;28;20238;-61
2023/05/14 01:20:35;;;;;;;10.67;5.60;;;;;;;11.56;57.87;100856.22;4213607;28;20244;-64
2023/05/14 01:23:02;;;;;;;11.83;6.10;;;;;;;11.52;58.35;100846.66;4214684;28;24070;-62
2023/05/14 01:25:30;;;;;;;13.30;6.07;;;;;;;11.46;59.28;100851.78;4220330;28;20304;-64
2023/05/14 01:28:01;;;;;;;13.63;5.87;;;;;;;11.37;59.37;100840.81;4217298;28;20227;-66
2023/05/14 01:30:35;;;;;;;13.47;5.60;;;;;;;11.25;59.80;100837.38;4201582;28;20285;-61
2023/05/14 01:33:11;;;;;;;12.70;6.63;;;;;;;11.33;59.65;100844.81;4213810;28;20244;-62
2023/05/14 01:35:38;;;;;;;13.70;6.33;;;;;;;11.31;59.70;100844.09;4221725;28;21348;-63
2023/05/14 01:38:06;;;;;;;13.17;6.33;;;;;;;11.31;59.58;100845.94;4211870;28;20346;-63
2023/05/14 01:40:35;;;;;;;12.87;6.43;;;;;;;11.24;60.09;100841.09;4224660;28;20308;-64
2023/05/14 01:43:03;;;;;;;10.73;6.27;;;;;;;11.23;60.14;100849.34;4220391;28;20243;-66
2023/05/14 01:45:30;;;;;;;13.57;6.77;;;;;;;11.20;60.30;100844.25;4210581;28;20310;-63
2023/05/14 01:47:56;;;;;;;15.93;7.67;;;;;;;11.18;60.43;100838.09;4222443;28;21638;-61
2023/05/14 01:50:23;;;;;;;26.13;9.03;;;;;;;11.01;61.56;100839.66;4229064;28;20239;-65
2023/05/14 01:52:52;;;;;;;17.43;9.33;;;;;;;10.99;61.31;100831.66;4211207;28;20356;-61
2023/05/14 01:55:18;;;;;;;17.37;8.77;;;;;;;11.16;60.87;100837.38;4199411;28;20248;-61
2023/05/14 01:57:45;;;;;;;17.23;8.73;;;;;;;11.13;61.03;100835.81;4217523;28;20243;-63
2023/05/14 02:00:12;;;;;;;18.83;9.53;;;;;;;11.01;61.65;100831.53;4217690;28;20411;-63
2023/05/14 02:02:38;;;;;;;16.37;9.30;;;;;;;10.90;62.04;100848.75;4225235;28;21295;-62
2023/05/14 02:05:05;;;;;;;23.47;10.10;;;;;;;10.70;63.71;100837.03;4211942;28;20663;-65
2023/05/14 02:07:32;;;;;;;19.13;9.67;;;;;;;10.73;63.37;100843.03;4215919;28;20267;-63
2023/05/14 02:09:59;;;;;;;19.87;10.03;;;;;;;10.77;62.99;100839.03;4214087;28;20235;-63
2023/05/14 02:12:25;;;;;;;22.07;10.37;;;;;;;10.70;63.19;100837.88;4211036;28;20299;-66
2023/05/14 02:14:52;;;;;;;18.07;9.97;;;;;;;10.61;64.36;100846.84;4212216;28;20236;-62
2023/05/14 02:17:18;;;;;;;22.73;11.87;;;;;;;10.44;65.25;100835.66;4198528;28;21982;-65
2023/05/14 02:19:45;;;;;;;21.60;11.30;;;;;;;10.54;64.77;100834.81;4217703;28;20311;-64
2023/05/14 02:22:12;;;;;;;20.87;10.97;;;;;;;10.65;64.28;100833.88;4207249;28;20422;-62
2023/05/14 02:24:38;;;;;;;23.83;10.63;;;;;;;10.62;64.45;100833.16;4209838;28;20255;-64
2023/05/14 02:27:05;;;;;;;25.67;11.37;;;;;;;10.54;64.55;100834.81;4219096;28;20228;-64
2023/05/14 02:29:31;;;;;;;19.87;11.07;;;;;;;10.56;65.04;100824.72;4219712;28;21721;-63
2023/05/14 02:31:58;;;;;;;20.07;10.60;;;;;;;10.49;65.18;100834.38;4210327;28;20237;-63
2023/05/14 02:34:24;;;;;;;20.00;11.23;;;;;;;10.46;65.18;100828.25;4212724;28;20239;-65
2023/05/14 02:36:51;;;;;;;26.10;11.70;;;;;;;10.33;65.74;100833.00;4218454;28;20302;-66
2023/05/14 02:39:17;;;;;;;21.10;10.60;;;;;;;10.30;65.76;100833.28;4214265;28;20235;-62
2023/05/14 02:41:44;;;;;;;20.63;11.13;;;;;;;10.15;66.57;100821.97;4211870;28;20336;-63
2023/05/14 02:44:10;;;;;;;29.73;12.70;;;;;;;10.02;67.52;100824.88;4214978;28;20418;-61
2023/05/14 02:46:37;;;;;;;28.70;12.33;;;;;;;10.06;67.20;100823.66;4208126;28;20340;-63
2023/05/14 02:49:03;;;;;;;22.17;12.93;;;;;;;10.01;67.21;100822.31;4195532;28;20611;-64
2023/05/14 02:51:30;;;;;;;27.47;12.67;;;;;;;9.91;67.69;100825.81;4214362;28;20231;-63
2023/05/14 02:53:56;;;;;;;24.73;12.03;;;;;;;9.72;68.94;100821.16;4209859;28;25407;-62
2023/05/14 02:56:23;;;;;;;20.53;11.33;;;;;;;9.68;68.96;100819.72;4203165;28;20236;-62
2023/05/14 02:58:50;;;;;;;25.07;11.97;;;;;;;9.65;69.23;100826.25;4220229;28;21801;-63
2023/05/14 03:01:17;;;;;;;25.50;13.90;;;;;;;9.60;69.73;100816.81;4215262;28;20274;-64
2023/05/14 03:03:44;;;;;;;23.77;11.73;;;;;;;9.58;69.57;100819.66;4234943;28;21752;-63
2023/05/14 03:06:11;;;;;;;23.27;12.43;;;;;;;9.60;69.57;100820.38;4198850;28;21062;-62
2023/05/14 03:08:38;;;;;;;26.57;12.87;;;;;;;9.68;69.39;100825.13;4217411;28;20315;-63
2023/05/14 03:11:05;;;;;;;23.37;12.27;;;;;;;9.66;69.75;100827.09;4209811;28;20228;-64
2023/05/14 03:13:32;;;;;;;23.87;12.00;;;;;;;9.75;69.20;100833.53;4209377;28;20438;-63
2023/05/14 03:15:58;;;;;;;25.43;12.47;;;;;;;9.89;69.11;100835.94;4214322;28;20662;-63
2023/05/14 03:18:27;;;;;;;24.07;13.40;;;;;;;9.77;69.68;100834.28;4236602;28;20381;-66
2023/05/14 03:20:53;;;;;;;23.60;13.17;;;;;;;9.77;70.13;100823.47;4215866;28;20228;-64
2023/05/14 03:23:20;;;;;;;24.20;12.33;;;;;;;9.84;69.51;100830.06;4220948;28;20254;-63
2023/05/14 03:25:46;;;;;;;24.13;11.90;;;;;;;9.93;69.54;100825.72;4206149;28;25686;-63
2023/05/14 03:28:13;;;;;;;30.47;12.63;;;;;;;9.94;69.32;100828.28;4211040;28;20342;-63
2023/05/14 03:30:40;;;;;;;29.17;13.50;;;;;;;9.94;69.13;100828.28;4211802;28;21136;-62
2023/05/14 03:33:06;;;;;;;24.80;12.77;;;;;;;10.10;68.63;100832.34;4221931;28;20240;-62
2023/05/14 03:35:33;;;;;;;21.27;12.30;;;;;;;10.24;68.16;100823.88;4202262;28;20256;-65
2023/05/14 03:37:59;;;;;;;21.90;12.73;;;;;;;10.31;67.61;100826.88;4211489;28;20326;-63
2023/05/14 03:40:26;;;;;;;24.77;12.70;;;;;;;10.27;67.85;100814.63;4219388;28;21990;-62
2023/05/14 03:42:52;;;;;;;26.13;12.67;;;;;;;10.31;67.89;100821.44;4215053;28;20275;-63
2023/05/14 03:45:19;;;;;;;21.10;11.80;;;;;;;10.38;67.73;100830.81;4202260;28;21699;-64
2023/05/14 03:47:46;;;;;;;27.67;12.53;;;;;;;10.34;68.09;100828.47;4211240;28;22229;-65
2023/05/14 03:50:13;;;;;;;24.73;12.20;;;;;;;10.41;68.08;100821.56;4212820;28;20235;-66
2023/05/14 03:52:39;;;;;;;22.60;12.37;;;;;;;10.64;67.15;100816.75;4210889;28;22021;-63
2023/05/14 03:55:06;;;;;;;24.53;11.90;;;;;;;10.56;67.63;100813.88;4214235;28;23008;-63
2023/05/14 03:57:33;;;;;;;27.07;13.47;;;;;;;10.61;67.30;100812.50;4220239;28;21839;-63
2023/05/14 03:59:59;;;;;;;21.03;11.47;;;;;;;10.56;67.69;100800.34;4223436;28;22122;-62
2023/05/14 04:02:26;;;;;;;20.73;12.40;;;;;;;10.42;68.58;100807.88;4215867;28;23895;-65
2023/05/14 04:04:52;;;;;;;28.63;13.30;;;;;;;10.39;68.90;100807.28;4218397;28;20250;-63
2023/05/14 04:07:19;;;;;;;23.37;12.30;;;;;;;10.38;69.38;100808.28;4223954;28;20240;-65
2023/05/14 04:09:45;;;;;;;22.20;12.20;;;;;;;10.37;69.71;100806.56;4208879;28;22408;-63
2023/05/14 04:12:12;;;;;;;23.43;12.43;;;;;;;10.43;69.25;100808.72;4209054;28;20237;-64
2023/05/14 04:14:39;;;;;;;26.30;13.13;;;;;;;10.55;68.74;100809.47;4221436;28;20243;-62
2023/05/14 04:17:05;;;;;;;23.30;12.90;;;;;;;10.68;68.62;100801.97;4214285;28;20282;-63
2023/05/14 04:19:32;;;;;;;25.97;13.20;;;;;;;10.78;68.05;100810.94;4203541;28;23736;-64
2023/05/14 04:21:58;;;;;;;24.30;13.00;;;;;;;10.94;67.26;100809.56;4220070;28;20923;-63
2023/05/14 04:24:25;;;;;;;26.33;13.17;;;;;;;11.02;66.90;100804.28;4217296;28;20470;-64
2023/05/14 04:26:51;;;;;;;24.20;12.40;;;;;;;11.16;66.38;100811.16;4214861;28;20316;-62
2023/05/14 04:29:17;;;;;;;26.90;13.00;;;;;;;11.22;66.53;100805.16;4211713;28;20245;-64
2023/05/14 04:31:45;;;;;;;24.20;12.17;;;;;;;11.39;65.46;100805.44;4211241;28;20237;-65
2023/05/14 04:34:11;;;;;;;25.30;12.67;;;;;;;11.60;64.69;100807.97;4206439;28;20393;-62
2023/05/14 04:36:39;;;;;;;23.80;12.93;;;;;;;11.73;63.99;100805.81;4223656;28;22067;-62
2023/05/14 04:39:05;;;;;;;25.27;12.07;;;;;;;11.86;63.87;100805.47;4216243;28;20308;-63
2023/05/14 04:41:32;;;;;;;20.23;11.70;;;;;;;11.97;64.06;100799.06;4205108;28;20307;-64
2023/05/14 04:44:00;;;;;;;32.90;13.70;;;;;;;12.02;63.84;100799.50;4207155;28;20263;-63
2023/05/14 04:46:27;;;;;;;25.73;12.83;;;;;;;12.21;63.28;100800.41;4218461;28;20269;-64
2023/05/14 04:48:55;;;;;;;19.63;11.97;;;;;;;12.36;62.98;100803.50;4216818;28;20304;-64
2023/05/14 04:51:22;;;;;;;25.07;12.67;;;;;;;12.46;62.34;100809.72;4213940;28;20678;-63
2023/05/14 04:53:48;;;;;;;23.47;12.10;;;;;;;12.63;61.46;100802.66;4214175;28;20234;-63
2023/05/14 04:56:15;;;;;;;24.57;12.13;;;;;;;12.80;61.13;100798.25;4208298;28;20229;-62
2023/05/14 04:58:41;;;;;;;22.93;11.77;;;;;;;12.81;61.24;100801.81;4198236;28;20259;-62
2023/05/14 05:01:08;;;;;;;26.30;12.60;;;;;;;12.84;61.59;100810.50;4208538;28;21219;-61
2023/05/14 05:03:34;;;;;;;25.57;12.53;;;;;;;12.87;61.66;100805.78;4211293;28;20608;-63
2023/05/14 05:06:01;;;;;;;23.53;12.23;;;;;;;13.03;61.52;100810.53;4206309;28;20236;-66
2023/05/14 05:08:28;;;;;;;26.47;12.73;;;;;;;13.15;60.64;100799.25;4211924;28;22117;-64
2023/05/14 05:10:54;;;;;;;23.07;12.80;;;;;;;13.34;60.00;100810.13;4209763;28;20230;-64
2023/05/14 05:13:21;;;;;;;23.97;11.93;;;;;;;13.38;60.27;100804.25;4215651;28;20644;-66
2023/05/14 05:15:47;;;;;;;21.17;11.70;;;;;;;13.54;59.86;100802.69;4197384;28;20376;-65
2023/05/14 05:18:14;;;;;;;31.00;12.57;;;;;;;13.75;58.81;100807.78;4211251;28;20610;-66
2023/05/14 05:20:40;;;;;;;23.10;12.73;;;;;;;13.77;59.34;100798.44;4212988;28;20829;-67
2023/05/14 05:23:07;;;;;;;22.40;11.47;;;;;;;14.04;58.96;100804.75;4214471;28;21675;-65
2023/05/14 05:25:33;;;;;;;26.27;12.73;;;;;;;14.20;58.07;100801.25;4220956;28;20869;-66
2023/05/14 05:28:00;;;;;;;24.97;11.83;;;;;;;14.45;57.51;100797.78;4224751;28;22069;-63
2023/05/14 05:30:26;;;;;;;27.17;12.27;;;;;;;14.45;57.46;100793.19;4212436;28;20290;-64
2023/05/14 05:32:55;;;;;;;20.57;11.60;;;;;;;14.58;57.29;100800.88;4213466;28;20575;-65
2023/05/14 05:35:22;;;;;;;28.23;12.07;;;;;;;14.74;56.84;100794.69;4222598;28;26098;-66
2023/05/14 05:37:48;;;;;;;19.70;11.60;;;;;;;15.09;55.45;100805.50;4228091;28;21982;-67
2023/05/14 05:40:15;;;;;;;22.37;11.27;;;;;;;15.57;53.89;100792.88;4208849;28;22698;-66
2023/05/14 05:42:42;;;;;;;21.77;11.07;;;;;;;15.99;52.57;100804.63;4213657;28;20279;-64
2023/05/14 05:45:09;;;;;;;36.47;12.07;;;;;;;16.64;51.63;100795.34;4215448;28;20235;-66
2023/05/14 05:47:35;;;;;;;18.90;11.03;;;;;;;17.35;49.86;100799.88;4207297;28;20256;-65
2023/05/14 05:50:02;;;;;;;21.07;10.27;;;;;;;18.79;46.22;100793.38;4210457;28;20270;-71
2023/05/14 05:52:29;;;;;;;20.17;10.40;;;;;;;20.06;43.85;100792.88;4226978;28;20256;-66
2023/05/14 05:54:55;;;;;;;22.73;10.40;;;;;;;20.27;41.58;100791.94;4206385;28;20235;-66
2023/05/14 05:57:22;;;;;;;20.27;11.00;;;;;;;20.97;40.58;100791.84;4217173;28;20244;-64
2023/05/14 05:59:52;;;;;;;19.53;10.10;;;;;;;21.82;38.60;100796.00;4210346;28;20236;-65
2023/05/14 06:02:18;;;;;;;19.60;10.07;;;;;;;22.79;36.10;100789.78;4204555;28;20234;-65
2023/05/14 06:04:45;;;;;;;22.00;10.63;;;;;;;23.32;35.92;100788.63;4202929;28;20523;-65
2023/05/14 06:07:12;;;;;;;15.50;9.47;;;;;;;23.77;34.31;100789.53;4214809;28;20988;-69
2023/05/14 06:09:38;;;;;;;22.23;8.77;;;;;;;24.68;32.93;100787.97;4222159;28;20311;-66
2023/05/14 06:12:05;;;;;;;20.50;9.03;;;;;;;24.69;32.91;100788.81;4218163;28;20312;-67
2023/05/14 06:14:32;;;;;;;18.83;9.47;;;;;;;25.71;31.08;100791.81;4212938;28;20515;-70
2023/05/14 06:16:58;;;;;;;16.43;9.10;;;;;;;26.18;29.66;100793.75;4213769;28;20247;-69
2023/05/14 06:19:25;;;;;;;18.53;8.67;;;;;;;26.44;29.47;100786.81;4219970;28;20251;-65
2023/05/14 06:21:52;;;;;;;24.50;9.68;;;;;;;27.00;29.16;100797.41;4209577;28;21351;-69
2023/05/14 06:24:19;;;;;;;19.17;7.88;;;;;;;27.90;27.22;100791.19;4210923;28;20259;-67
2023/05/14 06:26:47;;;;;;;19.60;6.82;;;;;;;26.15;27.60;100785.91;4213958;28;20572;-68
2023/05/14 06:29:14;;;;;;;14.82;6.25;;;;;;;26.11;26.41;100793.88;4213527;28;20313;-65
2023/05/14 06:31:40;;;;;;;13.23;6.10;;;;;;;26.36;26.56;100793.56;4245964;28;20226;-64
2023/05/14 06:34:08;;;;;;;12.68;6.43;;;;;;;27.99;24.76;100792.41;4210615;28;21188;-66
2023/05/14 06:36:34;;;;;;;14.05;5.60;;;;;;;28.52;24.29;100787.34;4219405;28;20235;-66
2023/05/14 06:39:02;;;;;;;11.32;5.95;;;;;;;27.57;24.82;100792.88;4213386;28;20303;-65
2023/05/14 06:41:28;;;;;;;13.55;5.60;;;;;;;27.84;24.13;100784.69;4210947;28;22245;-68
2023/05/14 06:43:55;;;;;;;14.15;5.60;;;;;;;25.42;26.64;100784.16;4212667;28;20259;-63
2023/05/14 06:46:22;;;;;;;12.30;5.18;;;;;;;26.37;25.52;100789.72;4209950;28;20260;-67
2023/05/14 06:48:48;;;;;;;13.60;5.70;;;;;;;25.52;26.30;100783.56;4204725;28;20288;-68
2023/05/14 06:51:15;;;;;;;15.63;5.45;;;;;;;24.61;27.23;100789.94;4206515;28;20415;-64
2023/05/14 06:53:41;;;;;;;13.90;5.65;;;;;;;25.37;26.70;100784.00;4207922;28;20497;-65
2023/05/14 06:56:08;;;;;;;12.60;5.05;;;;;;;26.09;25.77;100782.19;4198726;28;20918;-64
2023/05/14 06:58:34;;;;;;;15.35;5.50;;;;;;;27.36;24.09;100781.41;4218055;28;21271;-64
2023/05/14 07:01:01;;;;;;;17.90;5.55;;;;;;;27.60;24.56;100778.47;4236380;28;20299;-64
2023/05/14 07:03:28;;;;;;;14.53;4.83;;;;;;;28.22;22.96;100777.50;4223650;28;25662;-65
2023/05/14 07:05:54;;;;;;;10.27;4.93;;;;;;;26.92;24.44;100779.19;4224441;28;20239;-67
2023/05/14 07:08:21;;;;;;;14.93;4.60;;;;;;;27.78;23.26;100775.41;4227499;28;21634;-65
2023/05/14 07:10:47;;;;;;;9.45;4.80;;;;;;;28.03;22.53;100770.50;4215814;28;20349;-65
2023/05/14 07:13:14;;;;;;;8.15;4.53;;;;;;;27.82;22.77;100775.75;4241273;28;21631;-71
2023/05/14 07:15:41;;;;;;;12.80;5.07;;;;;;;27.60;23.89;100775.69;4215658;28;21141;-67
2023/05/14 07:18:07;;;;;;;8.10;4.17;;;;;;;26.41;24.56;100777.06;4207257;28;20248;-68
2023/05/14 07:20:34;;;;;;;12.23;4.80;;;;;;;26.45;25.52;100760.75;4226408;28;20289;-67
2023/05/14 07:23:00;;;;;;;11.23;4.10;;;;;;;27.57;23.11;100773.41;4212794;28;21749;-67
2023/05/14 07:25:29;;;;;;;9.63;3.75;;;;;;;27.47;22.30;100769.38;4210369;28;20231;-68
2023/05/14 07:27:56;;;;;;;15.43;4.18;;;;;;;27.80;22.24;100777.94;4240005;28;21073;-68
2023/05/14 07:30:22;;;;;;;13.18;3.80;;;;;;;27.72;22.99;100779.22;4231699;28;20309;-64
2023/05/14 07:32:50;;;;;;;12.43;4.18;;;;;;;26.56;24.51;100775.69;4238030;28;20244;-65
2023/05/14 07:35:16;;;;;;;12.63;4.20;;;;;;;26.51;24.68;100776.41;4224385;28;20922;-66
2023/05/14 07:37:43;;;;;;;11.00;3.80;;;;;;;25.05;25.84;100769.56;4253695;28;21634;-68
2023/05/14 07:40:10;;;;;;;8.77;3.70;;;;;;;24.81;26.21;100770.34;4231770;28;20254;-68
2023/05/14 07:42:36;;;;;;;12.20;4.00;;;;;;;24.60;26.31;100768.88;4224608;28;20289;-65
2023/05/14 07:45:04;;;;;;;9.23;4.40;;;;;;;24.77;26.89;100766.34;4237606;28;20289;-65
2023/05/14 07:47:31;;;;;;;9.00;3.70;;;;;;;24.59;26.70;100771.88;4229200;28;20242;-67
2023/05/14 07:49:57;;;;;;;10.80;3.83;;;;;;;23.83;26.97;100763.78;4219256;28;23566;-66
2023/05/14 07:52:24;;;;;;;13.13;4.03;;;;;;;23.21;27.92;100768.09;4213268;28;20236;-66
2023/05/14 07:54:51;;;;;;;10.67;3.93;;;;;;;22.75;28.94;100766.44;4215332;28;20231;-67
2023/05/14 07:57:18;;;;;;;9.80;3.53;;;;;;;23.09;28.08;100753.31;4222460;28;21693;-66
2023/05/14 07:59:46;;;;;;;8.97;3.57;;;;;;;23.73;29.27;100756.84;4216747;28;20240;-66
2023/05/14 08:02:14;;;;;;;8.93;3.50;;;;;;;23.48;28.00;100761.53;4220419;28;20397;-66
2023/05/14 08:04:41;;;;;;;6.23;2.90;;;;;;;23.77;27.27;100753.59;4229702;28;20242;-64
2023/05/14 08:07:08;;;;;;;20.83;3.33;;;;;;;24.15;26.44;100753.47;4229395;28;20985;-63
2023/05/14 08:09:34;;;;;;;8.90;3.30;;;;;;;23.83;26.33;100739.72;4217680;28;20240;-67
2023/05/14 08:12:01;;;;;;;9.60;2.80;;;;;;;23.06;26.37;100743.56;4230961;28;21680;-64
2023/05/14 08:14:28;;;;;;;5.40;2.77;;;;;;;23.50;26.87;100738.13;4223291;28;20334;-66
2023/05/14 08:16:54;;;;;;;11.83;2.80;;;;;;;23.87;26.56;100731.81;4215179;28;20695;-66
2023/05/14 08:19:21;;;;;;;8.40;2.87;;;;;;;23.55;26.35;100731.91;4205064;28;20239;-67
2023/05/14 08:21:48;;;;;;;10.60;2.90;;;;;;;23.77;26.36;100729.59;4220323;28;22201;-65
2023/05/14 08:24:14;;;;;;;14.27;3.40;;;;;;;23.13;27.77;100726.91;4224003;28;20321;-66
2023/05/14 08:26:42;;;;;;;8.97;2.90;;;;;;;23.31;27.50;100719.81;4222657;28;21665;-66
2023/05/14 08:29:09;;;;;;;6.40;3.00;;;;;;;23.36;28.23;100725.50;4212214;28;22236;-67
2023/05/14 08:31:37;;;;;;;12.57;3.50;;;;;;;23.61;27.80;100722.72;4213497;28;20305;-63
2023/05/14 08:34:04;;;;;;;7.93;3.40;;;;;;;23.19;29.36;100731.56;4234422;28;20232;-64
2023/05/14 08:36:31;;;;;;;7.60;3.37;;;;;;;23.67;28.79;100720.97;4219734;28;21874;-65
2023/05/14 08:38:58;;;;;;;12.87;4.23;;;;;;;23.70;29.45;100724.13;4224663;28;20231;-66
2023/05/14 08:41:24;;;;;;;8.03;3.40;;;;;;;23.38;30.13;100715.91;4232984;28;20227;-64
2023/05/14 08:44:04;;;;;;;6.07;3.40;;;;;;;23.73;29.09;100720.91;4233704;28;20319;-72
2023/05/14 08:46:31;;;;;;;9.27;3.37;;;;;;;23.42;30.20;100706.13;4234178;28;20332;-67
2023/05/14 08:49:21;;;;;;;8.10;3.43;;;;;;;23.49;29.61;100703.28;4224907;28;22907;-65
2023/05/14 08:51:48;;;;;;;9.03;3.50;;;;;;;22.99;30.45;100719.81;4236493;28;20307;-68
2023/05/14 08:54:21;;;;;;;9.03;3.17;;;;;;;23.18;30.53;100710.56;4211936;28;20235;-72
2023/05/14 08:56:50;;;;;;;12.80;3.20;;;;;;;23.73;29.38;100709.00;4242367;28;21043;-67
2023/05/14 08:59:18;;;;;;;6.93;2.80;;;;;;;23.65;28.64;100712.91;4225021;28;20254;-68
2023/05/14 09:01:48;;;;;;;6.03;2.60;;;;;;;23.65;27.79;100706.53;4228340;28;21466;-68
2023/05/14 09:04:18;;;;;;;7.30;2.87;;;;;;;23.48;27.30;100700.75;4267212;28;20549;-65
2023/05/14 09:06:48;;;;;;;10.77;2.60;;;;;;;22.74;29.14;100710.41;4225221;28;21458;-68
2023/05/14 09:09:15;;;;;;;9.90;2.60;;;;;;;22.92;27.99;100708.81;4199316;28;20239;-66
2023/05/14 09:11:45;;;;;;;6.63;2.50;;;;;;;22.66;28.35;100699.63;4218988;28;25201;-68
2023/05/14 09:14:12;;;;;;;5.83;2.47;;;;;;;22.47;28.39;100699.50;4228816;28;21153;-65
2023/05/14 09:16:40;;;;;;;9.73;2.70;;;;;;;22.89;29.48;100700.97;4213172;28;20607;-67
2023/05/14 09:19:07;;;;;;;11.53;3.10;;;;;;;23.24;28.78;100692.22;4208501;28;20231;-67
2023/05/14 09:21:34;;;;;;;9.97;2.30;;;;;;;23.06;28.22;100696.63;4209613;28;20236;-67
2023/05/14 09:24:01;;;;;;;6.63;2.40;;;;;;;22.71;29.11;100690.69;4235396;28;20236;-70
2023/05/14 09:26:30;;;;;;;9.17;2.40;;;;;;;22.53;27.61;100694.19;4221305;28;25405;-69
2023/05/14 09:29:03;;;;;;;8.07;2.50;;;;;;;22.38;28.96;100698.06;4217474;28;20239;-69
2023/05/14 09:31:31;;;;;;;6.50;2.43;;;;;;;22.60;27.79;100695.84;4212923;28;21511;-70
2023/05/14 09:33:58;;;;;;;7.20;2.60;;;;;;;22.72;27.69;100703.44;4231972;28;20233;-70
2023/05/14 09:36:26;;;;;;;4.97;2.23;;;;;;;22.58;28.05;100694.38;4226026;28;20239;-72
2023/05/14 09:38:55;;;;;;;8.67;2.53;;;;;;;22.54;28.35;100695.91;4207918;28;20263;-67
2023/05/14 09:41:23;;;;;;;6.93;2.40;;;;;;;22.57;27.81;100699.06;4232369;28;20231;-69
2023/05/14 09:43:50;;;;;;;8.77;2.23;;;;;;;22.46;28.60;100692.31;4225068;28;20239;-69
2023/05/14 09:46:17;;;;;;;7.97;2.03;;;;;;;22.20;29.11;100670.34;4239555;28;20247;-68
2023/05/14 09:48:44;;;;;;;8.43;2.00;;;;;;;22.41;27.96;100675.56;4206168;28;26887;-69
2023/05/14 09:51:12;;;;;;;9.90;2.23;;;;;;;22.40;27.74;100679.38;4219529;28;20972;-68
2023/05/14 09:53:40;;;;;;;5.37;2.37;;;;;;;22.39;28.52;100676.88;4227819;28;20299;-70
2023/05/14 09:56:06;;;;;;;7.60;2.40;;;;;;;22.39;28.25;100674.09;4208850;28;20241;-68
2023/05/14 09:58:33;;;;;;;7.37;2.50;;;;;;;22.71;28.49;100666.69;4211729;28;21444;-69
2023/05/14 10:01:00;;;;;;;5.57;2.27;;;;;;;22.54;27.13;100663.63;4207460;28;23057;-70
2023/05/14 10:03:29;;;;;;;7.50;2.47;;;;;;;22.36;27.54;100669.00;4202852;28;21202;-69
2023/05/14 10:06:00;;;;;;;5.43;2.00;;;;;;;22.21;27.55;100672.88;4232042;28;20248;-70
2023/05/14 10:08:29;;;;;;;4.40;2.23;;;;;;;22.23;27.51;100668.00;4196429;28;25818;-70
2023/05/14 10:10:57;;;;;;;7.57;2.20;;;;;;;22.50;26.79;100670.66;4209802;28;20671;-71
2023/05/14 10:13:32;;;;;;;3.97;2.20;;;;;;;22.43;27.01;100667.94;4203860;28;20630;-68
2023/05/14 10:15:59;;;;;;;10.40;2.47;;;;;;;22.65;27.02;100661.25;4214821;28;20643;-69
2023/05/14 10:18:30;;;;;;;9.13;2.10;;;;;;;22.90;27.05;100652.97;4207471;28;20271;-68
2023/05/14 10:21:03;;;;;;;7.90;2.57;;;;;;;23.13;26.62;100654.28;4207646;28;20375;-74
2023/05/14 10:23:29;;;;;;;5.37;2.57;;;;;;;22.46;27.35;100650.94;4221164;28;22700;-72
2023/05/14 10:25:59;;;;;;;7.87;2.20;;;;;;;22.27;27.33;100654.63;4246511;28;20249;-70
2023/05/14 10:28:26;;;;;;;10.23;2.93;;;;;;;21.98;27.72;100651.34;4215944;28;23020;-73
2023/05/14 10:30:53;;;;;;;10.50;2.63;;;;;;;22.41;27.76;100642.47;4208824;28;20382;-68
2023/05/14 10:33:20;;;;;;;5.73;2.37;;;;;;;22.45;27.29;100615.28;4231885;28;20236;-69
2023/05/14 10:36:06;;;;;;;14.07;2.90;;;;;;;22.75;27.14;100645.00;4244645;28;22365;-72
2023/05/14 10:38:34;;;;;;;6.17;2.17;;;;;;;22.44;27.72;100636.53;4201904;28;20314;-69
2023/05/14 10:41:06;;;;;;;12.07;2.23;;;;;;;22.54;27.69;100649.00;4229924;28;20299;-72
2023/05/14 10:43:37;;;;;;;7.77;2.77;;;;;;;23.04;26.39;100631.63;4245173;28;20611;-70
2023/05/14 10:46:04;;;;;;;6.20;2.20;;;;;;;22.88;26.25;100622.00;4220574;28;21829;-70
2023/05/14 10:48:31;;;;;;;4.37;2.30;;;;;;;22.74;26.65;100618.47;4206276;28;20364;-73
2023/05/14 10:50:59;;;;;;;4.23;2.20;;;;;;;22.46;27.25;100634.41;4215308;28;25332;-71
2023/05/14 10:53:36;;;;;;;8.13;2.30;;;;;;;22.45;27.68;100627.19;4225091;28;22980;-69
2023/05/14 10:56:07;;;;;;;5.77;2.20;;;;;;;22.48;27.62;100623.13;4208874;28;20540;-71
2023/05/14 10:58:38;;;;;;;7.97;2.33;;;;;;;22.35;28.36;100629.53;4206662;28;20308;-76
2023/05/14 11:01:07;;;;;;;11.47;3.20;;;;;;;22.36;27.69;100625.72;4238245;28;20240;-72
2023/05/14 11:03:44;;;;;;;4.20;2.07;;;;;;;22.23;28.46;100610.09;4218720;28;20240;-75
2023/05/14 11:06:13;;;;;;;6.20;2.40;;;;;;;22.36;28.70;100592.63;4218276;28;20237;-71
2023/05/14 11:08:40;;;;;;;4.67;2.20;;;;;;;22.37;27.82;100587.94;4199316;28;22027;-71
2023/05/14 11:11:08;;;;;;;9.30;2.43;;;;;;;22.60;28.03;100584.66;4217331;28;20234;-69
2023/05/14 11:13:34;;;;;;;8.43;2.33;;;;;;;22.58;28.09;100573.81;4222238;28;20306;-74
2023/05/14 11:16:02;;;;;;;7.80;2.43;;;;;;;22.47;28.11;100585.56;4222202;28;20229;-68
2023/05/14 11:18:52;;;;;;;4.17;2.20;;;;;;;22.42;27.54;100571.63;4214432;28;21146;-71